createdAt,value
2019-03-22T00:01:31.724Z,10.70
2019-03-22T00:04:01.919Z,10.70
2019-03-22T00:06:32.060Z,10.70
2019-03-22T00:09:02.152Z,10.70
2019-03-22T00:11:32.890Z,10.70
2019-03-22T00:14:02.462Z,10.80
2019-03-22T00:16:32.610Z,10.80
2019-03-22T00:19:02.742Z,10.70
2019-03-22T00:21:32.900Z,10.70
2019-03-22T00:24:02.974Z,10.80
2019-03-22T00:26:33.161Z,10.80
2019-03-22T00:29:03.383Z,10.80
2019-03-22T00:31:33.482Z,10.80
2019-03-22T00:34:03.746Z,10.80
2019-03-22T00:36:33.810Z,10.80
2019-03-22T00:39:05.150Z,10.80
2019-03-22T00:41:34.590Z,10.80
2019-03-22T00:44:04.279Z,10.70
2019-03-22T00:46:34.322Z,10.70
2019-03-22T00:49:04.512Z,10.70
2019-03-22T00:51:34.554Z,10.80
2019-03-22T00:54:04.846Z,10.70
2019-03-22T00:56:34.868Z,10.70
2019-03-22T00:59:06.714Z,10.70
2019-03-22T01:01:36.167Z,10.70
2019-03-22T01:04:05.671Z,10.70
2019-03-22T01:06:35.461Z,10.60
2019-03-22T01:09:06.350Z,10.60
2019-03-22T01:11:35.920Z,10.70
2019-03-22T01:14:05.906Z,10.70
2019-03-22T01:16:36.008Z,10.70
2019-03-22T01:19:06.133Z,10.70
2019-03-22T01:21:36.316Z,10.70
2019-03-22T01:24:06.461Z,10.70
2019-03-22T01:26:36.585Z,10.70
2019-03-22T01:29:06.698Z,10.70
2019-03-22T01:31:36.992Z,10.60
2019-03-22T01:34:07.055Z,10.50
2019-03-22T01:36:37.146Z,10.50
2019-03-22T01:39:07.519Z,10.50
2019-03-22T01:41:37.454Z,10.50
2019-03-22T01:44:07.590Z,10.60
2019-03-22T01:46:37.632Z,10.60
2019-03-22T01:49:08.065Z,10.60
2019-03-22T01:51:38.053Z,10.60
2019-03-22T01:54:08.372Z,10.50
2019-03-22T01:56:38.303Z,10.50
2019-03-22T01:59:08.592Z,10.50
2019-03-22T02:01:38.623Z,10.50
2019-03-22T02:04:08.857Z,10.60
2019-03-22T02:06:38.951Z,10.60
2019-03-22T02:09:09.178Z,10.60
2019-03-22T02:11:39.281Z,10.60
2019-03-22T02:14:11.059Z,10.60
2019-03-22T02:16:41.501Z,10.50
2019-03-22T02:19:11.198Z,10.40
2019-03-22T02:21:41.457Z,10.40
2019-03-22T02:24:11.672Z,10.40
2019-03-22T02:26:41.124Z,10.40
2019-03-22T02:29:10.575Z,10.30
2019-03-22T02:31:40.334Z,10.40
2019-03-22T02:34:10.472Z,10.40
2019-03-22T02:36:40.663Z,10.40
2019-03-22T02:39:10.828Z,10.40
2019-03-22T02:41:41.007Z,10.40
2019-03-22T02:44:11.040Z,10.40
2019-03-22T02:46:41.193Z,10.40
2019-03-22T02:49:11.561Z,10.40
2019-03-22T02:51:41.557Z,10.40
2019-03-22T02:54:11.715Z,10.40
2019-03-22T02:56:41.828Z,10.30
2019-03-22T02:59:12.344Z,10.30
2019-03-22T03:01:42.141Z,10.30
2019-03-22T03:04:12.180Z,10.30
2019-03-22T03:06:42.592Z,10.30
2019-03-22T03:09:12.521Z,10.20
2019-03-22T03:11:42.706Z,10.20
2019-03-22T03:14:12.755Z,10.20
2019-03-22T03:16:42.858Z,10.20
2019-03-22T03:19:12.992Z,10.30
2019-03-22T03:21:43.196Z,10.20
2019-03-22T03:24:13.328Z,10.20
2019-03-22T03:26:43.489Z,10.20
2019-03-22T03:29:13.554Z,10.30
2019-03-22T03:31:43.775Z,10.30
2019-03-22T03:34:13.911Z,10.30
2019-03-22T03:36:44.071Z,10.30
2019-03-22T03:39:14.243Z,10.30
2019-03-22T03:41:44.315Z,10.30
2019-03-22T03:44:14.558Z,10.30
2019-03-22T03:46:44.558Z,10.30
2019-03-22T03:49:14.724Z,10.30
2019-03-22T03:51:44.815Z,10.20
2019-03-22T03:54:15.046Z,10.30
2019-03-22T03:56:45.144Z,10.30
2019-03-22T03:59:15.287Z,10.20
2019-03-22T04:01:45.459Z,10.20
2019-03-22T04:04:15.623Z,10.20
2019-03-22T04:06:45.709Z,10.20
2019-03-22T04:09:15.908Z,10.20
2019-03-22T04:11:45.934Z,10.30
2019-03-22T04:14:16.170Z,10.40
2019-03-22T04:16:46.324Z,10.40
2019-03-22T04:19:17.337Z,10.40
2019-03-22T04:21:49.456Z,10.40
2019-03-22T04:24:18.929Z,10.30
2019-03-22T04:26:48.297Z,10.20
2019-03-22T04:29:17.723Z,10.20
2019-03-22T04:31:47.176Z,10.20
2019-03-22T04:34:17.280Z,10.20
2019-03-22T04:36:47.414Z,10.20
2019-03-22T04:39:17.521Z,10.20
2019-03-22T04:41:47.883Z,10.10
2019-03-22T04:44:17.955Z,10.20
2019-03-22T04:46:48.132Z,10.10
2019-03-22T04:49:20.547Z,10.20
2019-03-22T04:51:50.716Z,10.10
2019-03-22T04:54:21.168Z,10.20
2019-03-22T04:56:51.795Z,10.20
2019-03-22T04:59:21.578Z,10.20
2019-03-22T05:01:53.557Z,10.20
2019-03-22T05:04:24.867Z,10.20
2019-03-22T05:06:54.974Z,10.10
2019-03-22T05:09:27.484Z,10.10
2019-03-22T05:11:59.241Z,10.20
2019-03-22T05:14:30.128Z,10.20
2019-03-22T05:16:59.929Z,10.10
2019-03-22T05:19:31.978Z,10.10
2019-03-22T05:22:03.668Z,10.10
2019-03-22T05:24:35.452Z,9.90
2019-03-22T05:27:06.534Z,9.80
2019-03-22T05:29:38.904Z,10.00
2019-03-22T05:32:11.982Z,10.00
2019-03-22T05:34:41.423Z,10.10
2019-03-22T05:37:10.932Z,10.10
2019-03-22T05:39:40.371Z,10.20
2019-03-22T05:42:09.904Z,10.20
2019-03-22T05:44:39.409Z,10.30
2019-03-22T05:47:08.934Z,10.30
2019-03-22T05:49:38.377Z,10.30
2019-03-22T05:52:08.746Z,10.30
2019-03-22T05:54:38.194Z,10.40
2019-03-22T05:57:13.239Z,10.30
2019-03-22T05:59:42.791Z,10.20
2019-03-22T06:02:09.867Z,10.00
2019-03-22T06:04:39.374Z,10.00
2019-03-22T06:07:08.747Z,9.90
2019-03-22T06:09:38.164Z,9.90
2019-03-22T06:12:07.570Z,9.90
2019-03-22T06:14:37.003Z,9.80
2019-03-22T06:17:06.511Z,9.90
2019-03-22T06:19:35.980Z,9.90
2019-03-22T06:22:05.357Z,9.90
2019-03-22T06:24:34.807Z,9.80
2019-03-22T06:27:04.292Z,9.80
2019-03-22T06:29:33.729Z,9.90
2019-03-22T06:32:03.227Z,9.90
2019-03-22T06:34:33.232Z,9.70
2019-03-22T06:37:02.650Z,9.60
2019-03-22T06:39:32.160Z,9.70
2019-03-22T06:42:03.053Z,9.70
2019-03-22T06:44:34.320Z,9.80
2019-03-22T06:47:03.744Z,9.80
2019-03-22T06:49:33.121Z,10.00
2019-03-22T06:52:02.569Z,10.00
2019-03-22T06:54:32.184Z,10.20
2019-03-22T06:57:01.647Z,10.20
2019-03-22T06:59:31.088Z,10.40
2019-03-22T07:02:00.526Z,10.40
2019-03-22T07:04:29.969Z,10.50
2019-03-22T07:06:59.397Z,10.60
2019-03-22T07:09:28.843Z,10.60
2019-03-22T07:11:58.835Z,10.50
2019-03-22T07:14:28.973Z,10.50
2019-03-22T07:16:59.101Z,10.50
2019-03-22T07:19:29.196Z,10.40
2019-03-22T07:21:59.298Z,10.30
2019-03-22T07:24:29.453Z,10.50
2019-03-22T07:26:59.919Z,10.60
2019-03-22T07:29:29.848Z,10.60
2019-03-22T07:31:59.833Z,10.30
2019-03-22T07:34:30.009Z,10.00
2019-03-22T07:37:00.229Z,10.00
2019-03-22T07:39:30.362Z,10.10
2019-03-22T07:42:00.440Z,10.30
2019-03-22T07:44:30.607Z,10.50
2019-03-22T07:47:02.547Z,10.50
2019-03-22T07:49:31.922Z,10.50
2019-03-22T07:52:01.299Z,10.60
2019-03-22T07:54:31.115Z,10.80
2019-03-22T07:57:01.255Z,10.90
2019-03-22T07:59:31.555Z,11.00
2019-03-22T08:02:01.603Z,11.20
2019-03-22T08:04:31.749Z,11.30
2019-03-22T08:07:01.831Z,11.40
2019-03-22T08:09:31.976Z,11.50
2019-03-22T08:12:02.148Z,11.60
2019-03-22T08:14:32.307Z,11.60
2019-03-22T08:17:02.455Z,11.70
2019-03-22T08:19:32.538Z,11.70
2019-03-22T08:22:02.623Z,11.80
2019-03-22T08:24:32.847Z,11.90
2019-03-22T08:27:02.963Z,12.00
2019-03-22T08:29:33.121Z,12.20
2019-03-22T08:32:03.347Z,12.20
2019-03-22T08:34:33.435Z,12.30
2019-03-22T08:37:03.586Z,12.40
2019-03-22T08:39:33.733Z,12.40
2019-03-22T08:42:03.837Z,12.40
2019-03-22T08:44:34.044Z,12.50
2019-03-22T08:47:04.096Z,12.60
2019-03-22T08:49:34.322Z,12.70
2019-03-22T08:52:04.487Z,12.80
2019-03-22T08:54:34.561Z,12.90
2019-03-22T08:57:07.475Z,12.90
2019-03-22T08:59:36.942Z,12.90
2019-03-22T09:02:08.262Z,13.00
2019-03-22T09:04:39.041Z,13.00
2019-03-22T09:07:08.509Z,13.00
2019-03-22T09:09:41.776Z,13.10
2019-03-22T09:12:08.993Z,13.10
2019-03-22T09:14:38.463Z,13.20
2019-03-22T09:17:07.967Z,13.30
2019-03-22T09:19:37.389Z,13.40
2019-03-22T09:22:06.829Z,13.60
2019-03-22T09:24:39.411Z,13.50
2019-03-22T09:27:08.768Z,13.60
2019-03-22T09:29:38.254Z,13.70
2019-03-22T09:32:07.717Z,13.80
2019-03-22T09:34:37.155Z,13.80
2019-03-22T09:37:08.994Z,13.80
2019-03-22T09:39:38.078Z,13.90
2019-03-22T09:42:07.503Z,13.80
2019-03-22T09:44:44.617Z,13.90
2019-03-22T09:47:11.553Z,14.00
2019-03-22T09:49:40.984Z,14.00
2019-03-22T09:52:10.449Z,14.00
2019-03-22T09:54:39.972Z,14.00
2019-03-22T09:57:09.429Z,14.00
2019-03-22T09:59:39.005Z,14.10
2019-03-22T10:02:08.593Z,14.20
2019-03-22T10:04:38.465Z,14.20
2019-03-22T10:07:08.580Z,14.30
2019-03-22T10:09:38.769Z,14.40
2019-03-22T10:12:08.921Z,14.40
2019-03-22T10:14:39.076Z,14.40
2019-03-22T10:17:09.325Z,14.40
2019-03-22T10:19:42.057Z,14.50
2019-03-22T10:22:10.505Z,14.50
2019-03-22T10:24:40.020Z,14.50
2019-03-22T10:27:09.815Z,14.60
2019-03-22T10:29:39.988Z,14.70
2019-03-22T10:32:10.093Z,14.80
2019-03-22T10:34:40.152Z,14.80
2019-03-22T10:37:10.398Z,14.90
2019-03-22T10:39:40.510Z,15.00
2019-03-22T10:42:10.731Z,14.90
2019-03-22T10:44:40.725Z,15.00
2019-03-22T10:47:10.953Z,15.10
2019-03-22T10:49:42.050Z,15.00
2019-03-22T10:52:11.959Z,15.20
2019-03-22T10:54:41.476Z,15.20
2019-03-22T10:57:11.505Z,15.30
2019-03-22T10:59:41.567Z,15.30
2019-03-22T11:02:14.817Z,15.10
2019-03-22T11:04:44.251Z,15.20
2019-03-22T11:07:13.946Z,15.40
2019-03-22T11:09:43.392Z,15.50
2019-03-22T11:12:12.792Z,15.80
2019-03-22T11:14:42.432Z,16.00
2019-03-22T11:17:13.074Z,16.10
2019-03-22T11:19:42.841Z,16.00
2019-03-22T11:22:12.998Z,16.00
2019-03-22T11:24:43.094Z,16.20
2019-03-22T11:27:13.831Z,16.50
2019-03-22T11:29:43.534Z,16.70
2019-03-22T11:32:13.732Z,16.60
2019-03-22T11:34:43.667Z,16.70
2019-03-22T11:37:13.869Z,16.90
2019-03-22T11:39:44.107Z,16.90
2019-03-22T11:42:14.270Z,16.70
2019-03-22T11:44:44.392Z,16.60
2019-03-22T11:47:14.466Z,16.40
2019-03-22T11:49:44.843Z,16.40
2019-03-22T11:52:14.876Z,16.20
2019-03-22T11:54:44.897Z,16.50
2019-03-22T11:57:15.107Z,16.80
2019-03-22T11:59:45.232Z,17.00
2019-03-22T12:02:22.106Z,17.20
2019-03-22T12:04:46.492Z,17.00
2019-03-22T12:07:15.880Z,17.00
2019-03-22T12:09:45.882Z,16.80
2019-03-22T12:12:16.016Z,16.60
2019-03-22T12:14:46.051Z,16.60
2019-03-22T12:17:16.182Z,16.60
2019-03-22T12:19:46.286Z,16.60
2019-03-22T12:22:16.611Z,16.40
2019-03-22T12:24:46.756Z,16.00
2019-03-22T12:27:16.848Z,16.00
2019-03-22T12:29:46.952Z,16.20
2019-03-22T12:32:17.086Z,16.20
2019-03-22T12:34:47.284Z,16.20
2019-03-22T12:37:17.502Z,15.60
2019-03-22T12:39:47.516Z,15.30
2019-03-22T12:42:17.722Z,15.40
2019-03-22T12:44:47.766Z,15.50
2019-03-22T12:47:18.074Z,15.70
2019-03-22T12:49:48.082Z,16.00
2019-03-22T12:52:18.218Z,16.20
2019-03-22T12:54:48.508Z,16.00
2019-03-22T12:57:18.499Z,16.00
2019-03-22T12:59:48.596Z,16.20
2019-03-22T13:02:18.785Z,16.30
2019-03-22T13:04:48.906Z,16.20
2019-03-22T13:07:19.147Z,16.10
2019-03-22T13:09:49.213Z,16.10
2019-03-22T13:12:19.370Z,15.90
2019-03-22T13:14:48.832Z,15.60
2019-03-22T13:17:18.353Z,15.50
2019-03-22T13:19:47.888Z,15.80
2019-03-22T13:22:17.337Z,16.00
2019-03-22T13:24:46.964Z,16.10
2019-03-22T13:27:16.400Z,16.10
2019-03-22T13:29:45.853Z,16.20
2019-03-22T13:32:15.292Z,16.30
2019-03-22T13:34:44.755Z,16.50
2019-03-22T13:37:14.180Z,16.60
2019-03-22T13:39:43.568Z,16.70
2019-03-22T13:42:13.012Z,16.70
2019-03-22T13:44:42.472Z,16.60
2019-03-22T13:47:14.342Z,16.60
2019-03-22T13:49:43.800Z,16.60
2019-03-22T13:52:14.322Z,16.80
2019-03-22T13:54:43.830Z,16.90
2019-03-22T13:57:13.197Z,17.00
2019-03-22T13:59:42.644Z,17.20
2019-03-22T14:02:12.014Z,17.30
2019-03-22T14:04:41.536Z,17.30
2019-03-22T14:07:10.985Z,17.20
2019-03-22T14:09:40.444Z,17.10
2019-03-22T14:12:09.878Z,17.10
2019-03-22T14:14:39.301Z,17.10
2019-03-22T14:17:09.897Z,17.10
2019-03-22T14:19:39.338Z,17.20
2019-03-22T14:22:08.726Z,17.30
2019-03-22T14:24:38.169Z,17.30
2019-03-22T14:27:07.608Z,17.30
2019-03-22T14:29:37.058Z,17.40
2019-03-22T14:32:07.929Z,17.60
2019-03-22T14:34:39.137Z,17.40
2019-03-22T14:37:08.607Z,17.40
2019-03-22T14:39:38.031Z,17.30
2019-03-22T14:42:07.397Z,17.30
2019-03-22T14:44:36.824Z,17.20
2019-03-22T14:47:06.261Z,17.20
2019-03-22T14:49:35.634Z,17.20
2019-03-22T14:52:05.094Z,17.30
2019-03-22T14:54:34.528Z,17.40
2019-03-22T14:57:04.055Z,17.50
2019-03-22T14:59:33.558Z,17.50
2019-03-22T15:02:03.093Z,17.40
2019-03-22T15:04:32.543Z,17.40
2019-03-22T15:07:02.020Z,17.40
2019-03-22T15:09:31.449Z,17.30
2019-03-22T15:12:00.925Z,17.30
2019-03-22T15:14:48.261Z,17.50
2019-03-22T15:17:19.379Z,17.60
2019-03-22T15:19:53.161Z,17.50
2019-03-22T15:22:42.473Z,17.50
2019-03-22T15:25:19.384Z,17.50
2019-03-22T15:28:06.929Z,17.50
2019-03-22T15:30:43.755Z,17.50
2019-03-22T15:33:34.490Z,17.50
2019-03-22T15:36:20.104Z,17.50
2019-03-22T15:39:07.954Z,17.50
2019-03-22T15:41:37.627Z,17.50
2019-03-22T15:44:07.163Z,17.40
2019-03-22T15:46:36.639Z,17.40
2019-03-22T15:49:06.069Z,17.40
2019-03-22T15:51:36.494Z,17.40
2019-03-22T15:54:05.933Z,17.40
2019-03-22T15:56:35.393Z,17.40
2019-03-22T15:59:04.903Z,17.40
2019-03-22T16:01:35.699Z,17.30
2019-03-22T16:04:05.216Z,17.30
2019-03-22T16:06:34.747Z,17.30
2019-03-22T16:09:07.345Z,17.30
2019-03-22T16:11:36.957Z,17.20
2019-03-22T16:14:06.397Z,17.20
2019-03-22T16:16:35.923Z,17.20
2019-03-22T16:19:05.433Z,17.10
2019-03-22T16:21:34.891Z,17.00
2019-03-22T16:24:05.691Z,17.00
2019-03-22T16:26:35.204Z,16.90
2019-03-22T16:29:04.651Z,16.90
2019-03-22T16:31:34.176Z,16.90
2019-03-22T16:34:03.630Z,16.90
2019-03-22T16:36:33.107Z,16.80
2019-03-22T16:39:02.566Z,16.80
2019-03-22T16:41:35.956Z,16.80
2019-03-22T16:44:05.537Z,16.70
2019-03-22T16:46:34.992Z,16.70
2019-03-22T16:49:05.224Z,16.60
2019-03-22T16:51:34.657Z,16.60
2019-03-22T16:54:04.355Z,16.50
2019-03-22T16:56:33.813Z,16.40
2019-03-22T16:59:03.261Z,16.40
2019-03-22T17:01:33.043Z,16.30
2019-03-22T17:04:04.663Z,16.20
2019-03-22T17:06:37.072Z,16.20
2019-03-22T17:09:07.164Z,16.10
2019-03-22T17:11:36.610Z,16.10
2019-03-22T17:14:06.217Z,16.00
2019-03-22T17:16:35.710Z,16.00
2019-03-22T17:19:05.309Z,15.90
2019-03-22T17:21:34.742Z,15.90
2019-03-22T17:24:04.357Z,15.80
2019-03-22T17:26:40.272Z,15.70
2019-03-22T17:29:09.831Z,15.60
2019-03-22T17:31:39.271Z,15.60
2019-03-22T17:34:14.180Z,15.50
2019-03-22T17:36:39.818Z,15.50
2019-03-22T17:39:09.400Z,15.40
2019-03-22T17:41:38.852Z,15.30
2019-03-22T17:44:08.344Z,15.30
2019-03-22T17:46:38.869Z,15.20
2019-03-22T17:49:08.486Z,15.20
2019-03-22T17:51:37.940Z,15.10
2019-03-22T17:54:08.464Z,15.00
2019-03-22T17:56:37.904Z,15.00
2019-03-22T17:59:07.348Z,15.00
2019-03-22T18:01:36.972Z,14.90
2019-03-22T18:04:06.480Z,14.80
2019-03-22T18:06:36.636Z,14.70
2019-03-22T18:09:06.968Z,14.70
2019-03-22T18:11:36.878Z,14.60
2019-03-22T18:14:07.051Z,14.50
2019-03-22T18:16:37.086Z,14.50
2019-03-22T18:19:09.366Z,14.40
2019-03-22T18:21:38.455Z,14.40
2019-03-22T18:24:07.969Z,14.30
2019-03-22T18:26:37.668Z,14.30
2019-03-22T18:29:07.874Z,14.20
2019-03-22T18:31:38.006Z,14.20
2019-03-22T18:34:08.082Z,14.20
2019-03-22T18:36:38.311Z,14.10
2019-03-22T18:39:09.172Z,14.10
2019-03-22T18:41:38.653Z,14.00
2019-03-22T18:44:09.244Z,14.00
2019-03-22T18:46:38.858Z,13.90
2019-03-22T18:49:09.262Z,13.90
2019-03-22T18:51:39.061Z,13.80
2019-03-22T18:54:09.451Z,13.80
2019-03-22T18:56:39.335Z,13.70
2019-03-22T18:59:09.556Z,13.70
2019-03-22T19:01:39.722Z,13.50
2019-03-22T19:04:09.835Z,13.50
2019-03-22T19:06:40.015Z,13.40
2019-03-22T19:09:10.121Z,13.40
2019-03-22T19:11:40.522Z,13.30
2019-03-22T19:14:10.432Z,13.30
2019-03-22T19:16:40.521Z,13.20
2019-03-22T19:19:11.585Z,13.10
2019-03-22T19:21:42.582Z,13.10
2019-03-22T19:24:12.039Z,13.00
2019-03-22T19:26:42.634Z,13.00
2019-03-22T19:29:13.767Z,12.90
2019-03-22T19:31:43.275Z,12.90
2019-03-22T19:34:12.721Z,12.90
2019-03-22T19:36:45.241Z,12.80
2019-03-22T19:39:14.682Z,12.80
2019-03-22T19:41:44.176Z,12.70
2019-03-22T19:44:13.639Z,12.70
2019-03-22T19:46:43.075Z,12.70
2019-03-22T19:49:12.591Z,12.70
2019-03-22T19:51:43.195Z,12.60
2019-03-22T19:54:12.717Z,12.60
2019-03-22T19:56:42.241Z,12.60
2019-03-22T19:59:12.676Z,12.50
2019-03-22T20:01:42.975Z,12.50
2019-03-22T20:04:13.087Z,12.50
2019-03-22T20:06:43.332Z,12.50
2019-03-22T20:09:13.557Z,12.40
2019-03-22T20:11:43.509Z,12.40
2019-03-22T20:14:14.586Z,12.40
2019-03-22T20:16:44.129Z,12.30
2019-03-22T20:19:14.886Z,12.30
2019-03-22T20:21:45.883Z,12.30
2019-03-22T20:24:15.387Z,12.30
2019-03-22T20:26:44.849Z,12.20
2019-03-22T20:29:17.825Z,12.20
2019-03-22T20:31:47.339Z,12.20
2019-03-22T20:34:19.615Z,12.20
2019-03-22T20:36:49.041Z,12.20
2019-03-22T20:39:19.040Z,12.20
2019-03-22T20:41:48.598Z,12.10
2019-03-22T20:44:18.127Z,12.10
2019-03-22T20:46:47.643Z,12.10
2019-03-22T20:49:17.055Z,12.10
2019-03-22T20:51:50.111Z,12.10
2019-03-22T20:54:19.653Z,12.00
2019-03-22T20:56:49.774Z,12.00
2019-03-22T20:59:21.997Z,12.00
2019-03-22T21:01:54.351Z,12.00
2019-03-22T21:04:25.519Z,11.90
2019-03-22T21:06:56.031Z,11.90
2019-03-22T21:09:25.998Z,11.90
2019-03-22T21:11:55.487Z,11.80
2019-03-22T21:14:28.279Z,11.80
2019-03-22T21:16:57.737Z,11.80
2019-03-22T21:19:27.283Z,11.80
2019-03-22T21:21:59.496Z,11.80
2019-03-22T21:24:29.417Z,11.80
2019-03-22T21:26:58.951Z,11.80
2019-03-22T21:29:32.355Z,11.70
2019-03-22T21:32:02.043Z,11.70
2019-03-22T21:34:31.487Z,11.70
2019-03-22T21:37:02.921Z,11.70
2019-03-22T21:39:32.237Z,11.70
2019-03-22T21:42:01.714Z,11.70
2019-03-22T21:44:32.905Z,11.60
2019-03-22T21:47:02.529Z,11.60
2019-03-22T21:49:32.049Z,11.60
2019-03-22T21:52:01.513Z,11.60
2019-03-22T21:54:30.976Z,11.60
2019-03-22T21:57:01.403Z,11.50
2019-03-22T21:59:32.571Z,11.50
2019-03-22T22:02:02.147Z,11.50
2019-03-22T22:04:31.605Z,11.50
2019-03-22T22:07:02.683Z,11.50
2019-03-22T22:09:32.139Z,11.40
2019-03-22T22:12:01.675Z,11.40
2019-03-22T22:14:40.490Z,11.40
2019-03-22T22:17:02.383Z,11.30
2019-03-22T22:19:31.979Z,11.30
2019-03-22T22:22:01.503Z,11.30
2019-03-22T22:24:31.046Z,11.30
2019-03-22T22:27:00.604Z,11.30
2019-03-22T22:29:30.146Z,11.20
2019-03-22T22:31:59.684Z,11.30
2019-03-22T22:34:29.216Z,11.20
2019-03-22T22:36:58.694Z,11.20
2019-03-22T22:39:28.198Z,11.10
2019-03-22T22:41:57.736Z,11.10
2019-03-22T22:44:27.203Z,11.10
2019-03-22T22:46:56.667Z,11.10
2019-03-22T22:49:26.111Z,11.10
2019-03-22T22:51:56.983Z,11.00
2019-03-22T22:54:26.439Z,11.00
2019-03-22T22:56:55.981Z,11.00
2019-03-22T22:59:25.428Z,11.00
2019-03-22T23:01:54.973Z,11.00
2019-03-22T23:04:24.433Z,10.90
2019-03-22T23:06:53.970Z,10.90
2019-03-22T23:09:23.465Z,10.90
2019-03-22T23:11:52.919Z,10.80
2019-03-22T23:14:23.996Z,10.70
2019-03-22T23:16:53.434Z,10.70
2019-03-22T23:19:22.877Z,10.70
2019-03-22T23:21:52.307Z,10.60
2019-03-22T23:24:21.792Z,10.60
2019-03-22T23:26:51.324Z,10.60
2019-03-22T23:29:20.854Z,10.60
2019-03-22T23:31:50.373Z,10.60
2019-03-22T23:34:20.056Z,10.50
2019-03-22T23:36:49.478Z,10.50
2019-03-22T23:39:18.945Z,10.50
2019-03-22T23:41:48.539Z,10.50
2019-03-22T23:44:17.955Z,10.50
2019-03-22T23:46:47.405Z,10.40
2019-03-22T23:49:16.871Z,10.40
2019-03-22T23:51:46.305Z,10.40
2019-03-22T23:54:15.778Z,10.40
2019-03-22T23:56:45.217Z,10.30
2019-03-22T23:59:14.678Z,10.30
